createdAt,value
2018-05-14T00:00:59.069Z,15.6
2018-05-14T00:02:21.433Z,15.6
2018-05-14T00:03:51.490Z,15.5
2018-05-14T00:05:11.384Z,15.6
2018-05-14T00:06:31.207Z,15.4
2018-05-14T00:07:51.044Z,15.5
2018-05-14T00:09:13.406Z,15.4
2018-05-14T00:10:33.267Z,15.5
2018-05-14T00:11:55.651Z,15.5
2018-05-14T00:13:15.502Z,15.4
2018-05-14T00:14:35.368Z,15.4
2018-05-14T00:15:55.223Z,15.3
2018-05-14T00:17:15.127Z,15.5
2018-05-14T00:18:40.084Z,15.7
2018-05-14T00:20:02.439Z,15.7
2018-05-14T00:21:22.261Z,15.7
2018-05-14T00:22:42.083Z,15.6
2018-05-14T00:24:01.920Z,15.6
2018-05-14T00:25:26.859Z,15.6
2018-05-14T00:26:46.711Z,15.1
2018-05-14T00:28:06.570Z,15.5
2018-05-14T00:29:28.922Z,15.6
2018-05-14T00:30:51.271Z,15.6
2018-05-14T00:32:11.093Z,15.5
2018-05-14T00:33:30.916Z,15.5
2018-05-14T00:34:50.762Z,15.4
2018-05-14T00:36:10.611Z,15.3
2018-05-14T00:37:30.514Z,15.4
2018-05-14T00:38:50.383Z,15.3
2018-05-14T00:40:10.281Z,15.2
2018-05-14T00:41:32.637Z,15.2
2018-05-14T00:42:55.014Z,15.6
2018-05-14T00:44:14.876Z,15.5
2018-05-14T00:45:37.258Z,15.5
2018-05-14T00:46:57.134Z,15.6
2018-05-14T00:48:17.067Z,15.6
2018-05-14T00:49:36.918Z,15.6
2018-05-14T00:51:09.493Z,15.5
2018-05-14T00:52:36.903Z,15.7
2018-05-14T00:53:56.737Z,15.2
2018-05-14T00:55:16.609Z,15.8
2018-05-14T00:56:36.431Z,15.6
2018-05-14T00:57:58.794Z,15.6
2018-05-14T00:59:18.612Z,15.7
2018-05-14T01:00:38.436Z,15.6
2018-05-14T01:01:58.297Z,15.5
2018-05-14T01:03:25.726Z,15.8
2018-05-14T01:04:50.658Z,15.8
2018-05-14T01:06:10.508Z,15.2
2018-05-14T01:07:32.894Z,15.1
2018-05-14T01:08:57.817Z,15.1
2018-05-14T01:10:20.256Z,15.1
2018-05-14T01:11:40.129Z,15.1
2018-05-14T01:13:00.016Z,15.2
2018-05-14T01:14:24.965Z,15.2
2018-05-14T01:15:47.330Z,15.2
2018-05-14T01:17:12.254Z,15.1
2018-05-14T01:18:32.080Z,15.1
2018-05-14T01:20:02.160Z,15
2018-05-14T01:21:24.538Z,15.1
2018-05-14T01:22:46.926Z,15
2018-05-14T01:24:06.770Z,14.8
2018-05-14T01:25:26.614Z,14.9
2018-05-14T01:26:51.513Z,14.9
2018-05-14T01:28:18.973Z,14.9
2018-05-14T01:29:41.424Z,14.9
2018-05-14T01:31:03.824Z,14.9
2018-05-14T01:32:26.231Z,14.9
2018-05-14T01:33:48.595Z,14.9
2018-05-14T01:35:18.539Z,14.9
2018-05-14T01:36:38.410Z,14.9
2018-05-14T01:38:05.834Z,15.1
2018-05-14T01:39:28.183Z,14.9
2018-05-14T01:40:50.585Z,15
2018-05-14T01:42:15.589Z,15
2018-05-14T01:43:37.973Z,14.9
2018-05-14T01:45:12.999Z,14.9
2018-05-14T01:46:40.445Z,15
2018-05-14T01:48:00.301Z,15.1
2018-05-14T01:49:25.256Z,15.1
2018-05-14T01:50:47.668Z,15
2018-05-14T01:52:17.675Z,15
2018-05-14T01:53:37.493Z,15
2018-05-14T01:54:57.327Z,15
2018-05-14T01:56:17.193Z,15
2018-05-14T01:57:39.588Z,14.8
2018-05-14T01:58:59.477Z,14.9
2018-05-14T02:00:19.301Z,14.9
2018-05-14T02:01:44.257Z,14.9
2018-05-14T02:03:09.187Z,15
2018-05-14T02:04:29.019Z,15.1
2018-05-14T02:05:51.378Z,15
2018-05-14T02:07:11.239Z,15.1
2018-05-14T02:08:31.089Z,15.1
2018-05-14T02:10:01.089Z,15.1
2018-05-14T02:11:20.918Z,15.1
2018-05-14T02:12:40.771Z,15
2018-05-14T02:14:00.605Z,14.9
2018-05-14T02:15:20.429Z,14.8
2018-05-14T02:16:45.352Z,14.9
2018-05-14T02:18:05.201Z,14.2
2018-05-14T02:19:25.081Z,14.2
2018-05-14T02:20:47.459Z,14.2
2018-05-14T02:22:09.828Z,14.1
2018-05-14T02:23:37.290Z,14.2
2018-05-14T02:24:57.110Z,14.2
2018-05-14T02:26:16.929Z,14.1
2018-05-14T02:27:36.800Z,14.6
2018-05-14T02:28:56.615Z,14.5
2018-05-14T02:30:21.497Z,14.9
2018-05-14T02:31:59.060Z,15.4
2018-05-14T02:33:18.878Z,15.3
2018-05-14T02:34:41.234Z,15.4
2018-05-14T02:36:01.061Z,15.4
2018-05-14T02:37:20.949Z,15.4
2018-05-14T02:38:40.800Z,15.4
2018-05-14T02:40:00.686Z,15.4
2018-05-14T02:41:25.577Z,15.4
2018-05-14T02:42:45.440Z,15.4
2018-05-14T02:44:05.272Z,15.4
2018-05-14T02:45:27.658Z,15.5
2018-05-14T02:46:47.523Z,15.5
2018-05-14T02:48:09.899Z,15.3
2018-05-14T02:49:29.745Z,15.3
2018-05-14T02:50:54.648Z,15.9
2018-05-14T02:52:19.555Z,15.9
2018-05-14T02:53:39.398Z,15.6
2018-05-14T02:55:01.800Z,15.6
2018-05-14T02:56:31.799Z,15.5
2018-05-14T02:57:51.624Z,15.4
2018-05-14T02:59:24.172Z,16
2018-05-14T03:00:44.004Z,15.8
2018-05-14T03:02:06.443Z,15.8
2018-05-14T03:03:28.787Z,15.7
2018-05-14T03:04:48.735Z,15.6
2018-05-14T03:06:16.225Z,15.5
2018-05-14T03:07:36.037Z,15.2
2018-05-14T03:08:55.855Z,15.5
2018-05-14T03:10:15.670Z,15.6
2018-05-14T03:11:38.013Z,13.8
2018-05-14T03:13:02.953Z,15.8
2018-05-14T03:14:22.801Z,15.9
2018-05-14T03:15:47.731Z,15.8
2018-05-14T03:17:10.120Z,15.7
2018-05-14T03:18:32.474Z,15.8
2018-05-14T03:19:52.296Z,15.8
2018-05-14T03:21:12.115Z,15.8
2018-05-14T03:22:34.503Z,15.8
2018-05-14T03:23:59.431Z,15.9
2018-05-14T03:25:31.933Z,15.8
2018-05-14T03:26:59.417Z,15.9
2018-05-14T03:28:19.271Z,15.8
2018-05-14T03:29:39.105Z,15.8
2018-05-14T03:30:58.974Z,15.9
2018-05-14T03:32:18.868Z,15.9
2018-05-14T03:33:38.746Z,15.9
2018-05-14T03:35:01.172Z,15.8
2018-05-14T03:36:23.521Z,15.8
2018-05-14T03:37:43.400Z,15.8
2018-05-14T03:39:05.751Z,15.8
2018-05-14T03:40:25.569Z,15.8
2018-05-14T03:41:47.923Z,15.8
2018-05-14T03:43:07.754Z,15.8
2018-05-14T03:44:27.582Z,15.4
2018-05-14T03:45:47.400Z,15.4
2018-05-14T03:47:07.225Z,15.4
2018-05-14T03:48:29.605Z,15.4
2018-05-14T03:49:49.474Z,15.5
2018-05-14T03:51:09.373Z,15.6
2018-05-14T03:52:29.279Z,15.5
2018-05-14T03:53:49.137Z,15.5
2018-05-14T03:55:08.964Z,15.5
2018-05-14T03:56:28.783Z,15.5
2018-05-14T03:57:51.189Z,15.5
2018-05-14T03:59:11.059Z,15.4
2018-05-14T04:00:30.897Z,15.4
2018-05-14T04:01:50.771Z,15.5
2018-05-14T04:03:13.182Z,15.5
2018-05-14T04:04:35.545Z,15.5
2018-05-14T04:05:55.362Z,15.5
2018-05-14T04:07:17.714Z,15.5
2018-05-14T04:08:37.550Z,15.4
2018-05-14T04:09:57.374Z,15.4
2018-05-14T04:11:17.190Z,15.4
2018-05-14T04:12:37.010Z,15.4
2018-05-14T04:13:59.432Z,15.3
2018-05-14T04:15:24.326Z,15.5
2018-05-14T04:16:44.178Z,15.5
2018-05-14T04:18:09.095Z,15.4
2018-05-14T04:19:28.936Z,15.4
2018-05-14T04:20:48.769Z,15.5
2018-05-14T04:22:08.624Z,15.5
2018-05-14T04:23:28.495Z,15.6
2018-05-14T04:24:50.903Z,15.6
2018-05-14T04:26:10.725Z,15.7
2018-05-14T04:27:33.129Z,15.7
2018-05-14T04:28:53.012Z,15.6
2018-05-14T04:30:22.958Z,15.7
2018-05-14T04:31:42.820Z,15.6
2018-05-14T04:33:17.827Z,15.9
2018-05-14T04:34:37.671Z,15.9
2018-05-14T04:35:57.509Z,15.9
2018-05-14T04:37:17.336Z,15.8
2018-05-14T04:38:42.145Z,15.9
2018-05-14T04:40:01.996Z,15.8
2018-05-14T04:41:21.817Z,15.8
2018-05-14T04:42:44.206Z,16
2018-05-14T04:44:04.048Z,16
2018-05-14T04:45:23.946Z,16
2018-05-14T04:46:43.790Z,16
2018-05-14T04:48:03.615Z,16
2018-05-14T04:49:23.513Z,16
2018-05-14T04:50:45.858Z,16
2018-05-14T04:52:13.333Z,15.9
2018-05-14T04:53:38.215Z,16
2018-05-14T04:55:00.608Z,16
2018-05-14T04:56:20.438Z,15.9
2018-05-14T04:57:42.797Z,16.1
2018-05-14T04:59:07.726Z,16.2
2018-05-14T05:00:37.685Z,16.2
2018-05-14T05:02:00.035Z,16.2
2018-05-14T05:03:24.951Z,16.3
2018-05-14T05:04:44.770Z,16.3
2018-05-14T05:06:04.635Z,16.2
2018-05-14T05:07:26.997Z,15.7
2018-05-14T05:08:46.818Z,15.8
2018-05-14T05:10:06.636Z,15.8
2018-05-14T05:11:34.228Z,15.8
2018-05-14T05:12:54.202Z,15.8
2018-05-14T05:14:21.671Z,15.8
2018-05-14T05:15:46.558Z,15.9
2018-05-14T05:17:06.424Z,15.9
2018-05-14T05:18:26.308Z,15.9
2018-05-14T05:19:51.194Z,15.9
2018-05-14T05:21:11.041Z,15.8
2018-05-14T05:22:33.401Z,15.9
2018-05-14T05:23:53.276Z,15
2018-05-14T05:25:18.166Z,15.8
2018-05-14T05:26:38.048Z,15.8
2018-05-14T05:28:05.455Z,15.9
2018-05-14T05:29:25.290Z,15.9
2018-05-14T05:30:45.131Z,15.9
2018-05-14T05:32:07.487Z,15.5
2018-05-14T05:33:32.421Z,15.9
2018-05-14T05:34:57.306Z,15.7
2018-05-14T05:36:17.130Z,15.8
2018-05-14T05:37:36.981Z,15.9
2018-05-14T05:38:59.381Z,15.9
2018-05-14T05:40:21.756Z,15.1
2018-05-14T05:41:41.583Z,15.9
2018-05-14T05:43:01.449Z,16.4
2018-05-14T05:44:26.330Z,16.4
2018-05-14T05:45:46.189Z,16.3
2018-05-14T05:47:06.010Z,16.4
2018-05-14T05:48:25.834Z,15.9
2018-05-14T05:49:45.674Z,15.8
2018-05-14T05:51:08.015Z,16
2018-05-14T05:52:35.451Z,16.1
2018-05-14T05:53:55.276Z,15.3
2018-05-14T05:55:15.099Z,16.1
2018-05-14T05:56:40.010Z,15.3
2018-05-14T05:58:02.363Z,15.3
2018-05-14T05:59:27.258Z,15.7
2018-05-14T06:00:47.088Z,15.3
2018-05-14T06:02:11.975Z,16.1
2018-05-14T06:03:31.803Z,16.1
2018-05-14T06:04:56.716Z,15.9
2018-05-14T06:06:21.633Z,16.1
2018-05-14T06:07:44.006Z,16
2018-05-14T06:09:06.389Z,16
2018-05-14T06:10:28.775Z,16
2018-05-14T06:11:48.633Z,16
2018-05-14T06:13:10.983Z,16
2018-05-14T06:14:30.799Z,16.1
2018-05-14T06:15:58.207Z,16.2
2018-05-14T06:17:20.625Z,16.3
2018-05-14T06:18:45.524Z,16.2
2018-05-14T06:20:05.394Z,16.2
2018-05-14T06:21:25.209Z,16.2
2018-05-14T06:22:57.716Z,16.3
2018-05-14T06:24:17.594Z,16.3
2018-05-14T06:25:45.016Z,16.3
2018-05-14T06:27:07.372Z,16.2
2018-05-14T06:28:27.202Z,16.3
2018-05-14T06:29:47.037Z,16.3
2018-05-14T06:31:06.875Z,16.3
2018-05-14T06:32:34.305Z,16.3
2018-05-14T06:33:54.167Z,16.3
2018-05-14T06:35:19.089Z,16.3
2018-05-14T06:36:38.939Z,16.2
2018-05-14T06:37:58.825Z,16.3
2018-05-14T06:39:18.669Z,16.4
2018-05-14T06:40:38.517Z,16.4
2018-05-14T06:41:58.358Z,16.4
2018-05-14T06:43:18.182Z,16.4
2018-05-14T06:44:38.076Z,16.4
2018-05-14T06:45:57.961Z,16.4
2018-05-14T06:47:18.011Z,16.4
2018-05-14T06:48:42.912Z,16.5
2018-05-14T06:50:07.884Z,16.5
2018-05-14T06:51:27.700Z,16.5
2018-05-14T06:52:47.526Z,16.5
2018-05-14T06:54:07.404Z,16.4
2018-05-14T06:55:27.251Z,16.5
2018-05-14T06:56:54.652Z,16.6
2018-05-14T06:58:14.473Z,16.5
2018-05-14T06:59:34.296Z,16.5
2018-05-14T07:00:54.195Z,16.5
2018-05-14T07:02:14.090Z,16.5
2018-05-14T07:03:41.508Z,16.6
2018-05-14T07:05:01.324Z,16.6
2018-05-14T07:06:26.247Z,16.5
2018-05-14T07:07:53.710Z,16.6
2018-05-14T07:09:18.631Z,16.6
2018-05-14T07:10:38.489Z,16.6
2018-05-14T07:12:00.895Z,16.6
2018-05-14T07:13:20.723Z,16.6
2018-05-14T07:14:45.611Z,16.6
2018-05-14T07:16:10.508Z,16.6
2018-05-14T07:17:30.352Z,16.6
2018-05-14T07:18:50.218Z,16.7
2018-05-14T07:20:15.120Z,16.6
2018-05-14T07:21:34.982Z,16.7
2018-05-14T07:23:07.484Z,16.7
2018-05-14T07:24:32.391Z,16.7
2018-05-14T07:25:57.279Z,16.7
2018-05-14T07:27:17.148Z,16.7
2018-05-14T07:28:39.503Z,16.7
2018-05-14T07:30:14.536Z,16.7
2018-05-14T07:31:36.981Z,16.7
2018-05-14T07:33:04.461Z,16.7
2018-05-14T07:34:24.291Z,16.7
2018-05-14T07:35:54.251Z,16.7
2018-05-14T07:37:19.182Z,16.7
2018-05-14T07:38:41.537Z,16.4
2018-05-14T07:40:03.906Z,16.5
2018-05-14T07:41:23.768Z,16.5
2018-05-14T07:42:43.622Z,16.5
2018-05-14T07:44:03.466Z,16.5
2018-05-14T07:45:38.503Z,16.4
2018-05-14T07:47:00.908Z,16.5
2018-05-14T07:48:28.398Z,16.5
2018-05-14T07:49:48.251Z,16.5
2018-05-14T07:51:08.097Z,16.5
2018-05-14T07:52:30.509Z,16.5
2018-05-14T07:53:52.860Z,16.5
2018-05-14T07:55:12.748Z,16.4
2018-05-14T07:56:32.576Z,16.5
2018-05-14T07:57:52.405Z,16.5
2018-05-14T07:59:17.336Z,16.6
2018-05-14T08:00:37.163Z,16.6
2018-05-14T08:01:59.535Z,16.6
2018-05-14T08:03:24.432Z,16.6
2018-05-14T08:04:51.840Z,16.7
2018-05-14T08:06:11.653Z,16.8
2018-05-14T08:07:34.007Z,16.8
2018-05-14T08:08:58.940Z,16.8
2018-05-14T08:10:18.789Z,16.8
2018-05-14T08:11:38.757Z,16.9
2018-05-14T08:12:58.606Z,16.8
2018-05-14T08:14:18.494Z,16.8
2018-05-14T08:15:40.843Z,16.9
2018-05-14T08:17:00.677Z,16.9
2018-05-14T08:18:23.109Z,17
2018-05-14T08:19:45.467Z,17
2018-05-14T08:21:05.289Z,17
2018-05-14T08:22:27.641Z,17
2018-05-14T08:23:49.998Z,17
2018-05-14T08:25:09.816Z,17
2018-05-14T08:26:29.637Z,17
2018-05-14T08:27:49.464Z,17
2018-05-14T08:29:09.291Z,17
2018-05-14T08:30:31.731Z,17
2018-05-14T08:31:51.588Z,17
2018-05-14T08:33:13.941Z,17
2018-05-14T08:34:33.827Z,17
2018-05-14T08:35:58.732Z,17.1
2018-05-14T08:37:18.586Z,16.9
2018-05-14T08:38:40.939Z,16.9
2018-05-14T08:40:00.762Z,17
2018-05-14T08:41:20.635Z,17
2018-05-14T08:42:43.069Z,17
2018-05-14T08:44:05.447Z,17.1
2018-05-14T08:45:25.274Z,17.1
2018-05-14T08:46:47.620Z,17.1
2018-05-14T08:48:07.566Z,17.1
2018-05-14T08:49:27.561Z,17.1
2018-05-14T08:50:47.452Z,17.1
2018-05-14T08:52:07.322Z,17.1
2018-05-14T08:53:27.195Z,17.1
2018-05-14T08:54:47.109Z,17.2
2018-05-14T08:56:09.553Z,17
2018-05-14T08:57:29.413Z,17
2018-05-14T08:58:49.230Z,17
2018-05-14T09:00:11.589Z,17
2018-05-14T09:01:31.501Z,17
2018-05-14T09:02:51.315Z,17
2018-05-14T09:04:11.133Z,17
2018-05-14T09:05:33.535Z,17
2018-05-14T09:06:55.932Z,17
2018-05-14T09:08:18.310Z,17
2018-05-14T09:09:38.167Z,17
2018-05-14T09:11:00.553Z,17
2018-05-14T09:12:28.012Z,17
2018-05-14T09:13:50.357Z,17
2018-05-14T09:15:12.734Z,17
2018-05-14T09:16:32.559Z,17
2018-05-14T09:17:57.509Z,17.1
2018-05-14T09:19:22.551Z,17
2018-05-14T09:20:45.080Z,16.8
2018-05-14T09:22:04.935Z,17.5
2018-05-14T09:23:27.279Z,17.6
2018-05-14T09:24:49.674Z,17.1
2018-05-14T09:26:14.560Z,17.2
2018-05-14T09:27:34.426Z,17.2
2018-05-14T09:28:59.349Z,17.2
2018-05-14T09:30:19.158Z,17.2
2018-05-14T09:31:38.981Z,17.3
2018-05-14T09:32:58.794Z,17.2
2018-05-14T09:34:23.674Z,17.3
2018-05-14T09:35:43.562Z,17.3
2018-05-14T09:37:05.919Z,17.3
2018-05-14T09:38:25.773Z,17.3
2018-05-14T09:39:45.592Z,17.3
2018-05-14T09:41:07.966Z,17.3
2018-05-14T09:42:30.376Z,17.3
2018-05-14T09:43:50.194Z,17.3
2018-05-14T09:45:12.561Z,17.3
2018-05-14T09:46:32.386Z,17.3
2018-05-14T09:47:52.281Z,17.5
2018-05-14T09:49:12.116Z,17.5
2018-05-14T09:50:32.032Z,17.6
2018-05-14T09:51:54.538Z,17.6
2018-05-14T09:53:14.356Z,17.5
2018-05-14T09:54:36.704Z,17.5
2018-05-14T09:55:56.547Z,17.5
2018-05-14T09:57:16.458Z,17.6
2018-05-14T09:58:36.306Z,17.6
2018-05-14T09:59:56.179Z,17.7
2018-05-14T10:01:18.532Z,17.7
2018-05-14T10:02:40.931Z,17.7
2018-05-14T10:04:05.849Z,17.7
2018-05-14T10:05:28.260Z,17.6
2018-05-14T10:06:55.669Z,17.6
2018-05-14T10:08:15.487Z,17.6
2018-05-14T10:09:37.886Z,17.7
2018-05-14T10:11:05.361Z,17.6
2018-05-14T10:12:30.250Z,17.6
2018-05-14T10:13:50.128Z,17.6
2018-05-14T10:15:12.508Z,17.6
2018-05-14T10:16:32.328Z,17.6
2018-05-14T10:17:54.943Z,17.7
2018-05-14T10:19:19.945Z,17.6
2018-05-14T10:20:44.871Z,17.7
2018-05-14T10:22:04.696Z,17.7
2018-05-14T10:23:27.050Z,17.7
2018-05-14T10:24:46.977Z,17.6
2018-05-14T10:26:09.476Z,17.7
2018-05-14T10:27:31.828Z,17.7
2018-05-14T10:28:54.178Z,17.8
2018-05-14T10:30:14.038Z,17.7
2018-05-14T10:31:44.029Z,17.8
2018-05-14T10:33:03.869Z,17.7
2018-05-14T10:34:26.251Z,17.7
2018-05-14T10:35:48.626Z,17.7
2018-05-14T10:37:08.443Z,17.7
2018-05-14T10:38:30.799Z,17.7
2018-05-14T10:39:55.716Z,17.7
2018-05-14T10:41:20.613Z,17.7
2018-05-14T10:42:43.028Z,17.7
2018-05-14T10:44:05.371Z,17.7
2018-05-14T10:45:37.870Z,17.6
2018-05-14T10:47:00.218Z,17.6
2018-05-14T10:48:22.598Z,17.6
2018-05-14T10:49:42.514Z,17.7
2018-05-14T10:51:04.865Z,17.7
2018-05-14T10:52:24.764Z,17.7
2018-05-14T10:53:44.594Z,17.8
2018-05-14T10:55:04.417Z,17.9
2018-05-14T10:56:26.794Z,17.8
2018-05-14T10:57:49.160Z,17.7
2018-05-14T10:59:08.990Z,17.4
2018-05-14T11:00:31.344Z,17.4
2018-05-14T11:01:51.171Z,17.4
2018-05-14T11:03:10.991Z,17.5
2018-05-14T11:04:35.869Z,17.6
2018-05-14T11:05:58.284Z,17.5
2018-05-14T11:07:23.180Z,17.6
2018-05-14T11:09:00.799Z,17.6
2018-05-14T11:10:20.623Z,17.6
2018-05-14T11:11:48.066Z,17.5
2018-05-14T11:13:07.962Z,17.5
2018-05-14T11:14:27.834Z,17.4
2018-05-14T11:15:52.743Z,17.3
2018-05-14T11:17:15.137Z,17.2
2018-05-14T11:18:40.049Z,17.6
2018-05-14T11:20:04.944Z,17.5
2018-05-14T11:21:27.380Z,17.5
2018-05-14T11:22:49.725Z,17.8
2018-05-14T11:24:09.660Z,17.6
2018-05-14T11:25:29.490Z,17.9
2018-05-14T11:26:49.319Z,17.5
2018-05-14T11:28:09.158Z,17.5
2018-05-14T11:29:36.618Z,17.5
2018-05-14T11:30:56.440Z,17.6
2018-05-14T11:32:18.840Z,17.6
2018-05-14T11:33:41.226Z,17.8
2018-05-14T11:35:08.635Z,17.8
2018-05-14T11:36:36.085Z,17.8
2018-05-14T11:37:58.465Z,17.7
2018-05-14T11:39:18.282Z,17.5
2018-05-14T11:40:38.135Z,17.6
2018-05-14T11:42:03.035Z,17.7
2018-05-14T11:43:25.384Z,17.6
2018-05-14T11:44:47.798Z,17.6
2018-05-14T11:46:07.649Z,17.5
2018-05-14T11:47:35.111Z,17.6
2018-05-14T11:48:57.508Z,17.7
2018-05-14T11:50:19.872Z,17.8
2018-05-14T11:51:44.790Z,17.7
2018-05-14T11:53:04.609Z,17.7
2018-05-14T11:54:27.023Z,17.6
2018-05-14T11:55:51.925Z,17.7
2018-05-14T11:57:11.763Z,17.7
2018-05-14T11:58:34.180Z,17.6
2018-05-14T11:59:54.023Z,17.6
2018-05-14T12:01:23.979Z,17.7
2018-05-14T12:02:51.425Z,18
2018-05-14T12:04:11.262Z,18.1
2018-05-14T12:05:31.106Z,18.3
2018-05-14T12:06:58.521Z,17.8
2018-05-14T12:08:18.366Z,17.9
2018-05-14T12:09:40.714Z,18
2018-05-14T12:11:00.536Z,17.9
2018-05-14T12:12:30.547Z,17.2
2018-05-14T12:13:55.432Z,17.1
2018-05-14T12:15:25.380Z,17.1
2018-05-14T12:16:47.761Z,17.2
2018-05-14T12:18:07.650Z,17.3
2018-05-14T12:19:27.503Z,17.8
2018-05-14T12:20:47.361Z,17.6
2018-05-14T12:22:07.213Z,16.7
2018-05-14T12:23:29.570Z,17.9
2018-05-14T12:24:49.399Z,17.5
2018-05-14T12:26:09.245Z,18.1
2018-05-14T12:27:29.080Z,19.5
2018-05-14T12:28:56.501Z,20.5
2018-05-14T12:30:18.894Z,19.7
2018-05-14T12:31:38.722Z,19
2018-05-14T12:33:03.645Z,18.6
2018-05-14T12:34:23.494Z,18.3
2018-05-14T12:35:43.313Z,18.1
2018-05-14T12:37:03.146Z,17.9
2018-05-14T12:38:22.964Z,17.8
2018-05-14T12:39:47.859Z,17.8
2018-05-14T12:41:07.736Z,17.7
2018-05-14T12:42:37.750Z,17.7
2018-05-14T12:43:57.649Z,17.7
2018-05-14T12:45:17.551Z,17.8
2018-05-14T12:46:37.404Z,17.9
2018-05-14T12:47:57.259Z,17.8
2018-05-14T12:49:17.162Z,17.8
2018-05-14T12:50:42.081Z,17.9
2018-05-14T12:52:07.053Z,17.9
2018-05-14T12:53:26.894Z,18.3
2018-05-14T12:54:46.725Z,18.5
2018-05-14T12:56:09.092Z,18.7
2018-05-14T12:57:31.476Z,18.7
2018-05-14T12:58:53.856Z,18.6
2018-05-14T13:00:13.710Z,18.5
2018-05-14T13:01:36.108Z,18.4
2018-05-14T13:02:55.986Z,18.3
2018-05-14T13:04:15.817Z,18.4
2018-05-14T13:05:38.180Z,18.6
2018-05-14T13:06:58.112Z,18.6
2018-05-14T13:08:17.938Z,18.5
2018-05-14T13:09:40.284Z,18.5
2018-05-14T13:11:02.666Z,18.4
2018-05-14T13:12:27.566Z,18.3
2018-05-14T13:13:54.975Z,18.3
2018-05-14T13:15:14.812Z,18.3
2018-05-14T13:16:44.748Z,18.2
2018-05-14T13:18:07.153Z,18.4
2018-05-14T13:19:27.000Z,18.4
2018-05-14T13:20:46.890Z,18.3
2018-05-14T13:22:06.740Z,18.3
2018-05-14T13:23:26.567Z,18.3
2018-05-14T13:24:46.434Z,18.4
2018-05-14T13:26:06.309Z,18.6
2018-05-14T13:27:26.170Z,18.5
2018-05-14T13:28:48.535Z,18.4
2018-05-14T13:30:15.943Z,18.3
2018-05-14T13:31:40.837Z,18.2
2018-05-14T13:33:00.659Z,18.2
2018-05-14T13:34:20.535Z,18.2
2018-05-14T13:35:47.953Z,18.1
2018-05-14T13:37:07.834Z,18.2
2018-05-14T13:38:32.724Z,18.4
2018-05-14T13:39:52.592Z,18.6
2018-05-14T13:41:12.444Z,17.9
2018-05-14T13:42:37.351Z,18
2018-05-14T13:43:57.209Z,17.4
2018-05-14T13:45:17.066Z,17.6
2018-05-14T13:46:36.969Z,17.5
2018-05-14T13:47:59.319Z,17.5
2018-05-14T13:49:21.722Z,18.1
2018-05-14T13:50:44.078Z,18.1
2018-05-14T13:52:03.895Z,18.2
2018-05-14T13:53:23.779Z,18.2
2018-05-14T13:54:43.607Z,18.2
2018-05-14T13:56:05.972Z,18.3
2018-05-14T13:57:25.821Z,18.3
2018-05-14T13:58:50.738Z,18.4
2018-05-14T14:00:15.630Z,18.4
2018-05-14T14:01:40.530Z,18.5
2018-05-14T14:03:10.542Z,18.3
2018-05-14T14:04:43.027Z,18.3
2018-05-14T14:06:10.493Z,18.4
2018-05-14T14:07:35.392Z,18.5
2018-05-14T14:08:55.213Z,18.5
2018-05-14T14:10:15.038Z,18.6
2018-05-14T14:11:34.993Z,18.6
2018-05-14T14:13:02.461Z,18.7
2018-05-14T14:14:22.313Z,18.7
2018-05-14T14:15:42.217Z,18.8
2018-05-14T14:17:02.098Z,18.8
2018-05-14T14:18:24.468Z,18.6
2018-05-14T14:19:44.286Z,18.6
2018-05-14T14:21:09.163Z,18.7
2018-05-14T14:22:28.995Z,18.8
2018-05-14T14:23:49.086Z,18.8
2018-05-14T14:25:09.213Z,19
2018-05-14T14:26:29.059Z,19
2018-05-14T14:27:48.887Z,18.9
2018-05-14T14:29:08.737Z,18.9
2018-05-14T14:30:28.588Z,18.6
2018-05-14T14:31:53.479Z,19.3
2018-05-14T14:33:13.311Z,19.3
2018-05-14T14:34:38.252Z,19.5
2018-05-14T14:36:00.637Z,19.5
2018-05-14T14:37:20.553Z,19.5
2018-05-14T14:38:55.562Z,19.6
2018-05-14T14:40:20.509Z,19.7
2018-05-14T14:41:47.969Z,19.8
2018-05-14T14:43:10.324Z,20.4
2018-05-14T14:44:30.205Z,20.1
2018-05-14T14:45:50.059Z,20.3
2018-05-14T14:47:09.882Z,20.4
2018-05-14T14:48:29.744Z,20.5
2018-05-14T14:49:49.571Z,20.7
2018-05-14T14:51:09.388Z,20.3
2018-05-14T14:52:31.769Z,20.4
2018-05-14T14:53:51.620Z,20
2018-05-14T14:55:19.042Z,19.7
2018-05-14T14:56:38.888Z,19.5
2018-05-14T14:58:01.301Z,19.3
2018-05-14T14:59:28.737Z,19.2
2018-05-14T15:01:01.219Z,19.1
2018-05-14T15:02:26.103Z,19
2018-05-14T15:03:45.990Z,18.8
2018-05-14T15:05:05.812Z,18.8
2018-05-14T15:06:25.627Z,18.8
2018-05-14T15:07:47.988Z,18.8
2018-05-14T15:09:07.823Z,18.7
2018-05-14T15:10:27.642Z,18.7
2018-05-14T15:11:47.479Z,18.6
2018-05-14T15:13:09.835Z,18.7
2018-05-14T15:14:29.651Z,18.6
2018-05-14T15:15:49.526Z,18.6
2018-05-14T15:17:09.387Z,18.6
2018-05-14T15:18:29.213Z,18.5
2018-05-14T15:19:49.038Z,18.5
2018-05-14T15:21:13.918Z,18.5
2018-05-14T15:22:33.783Z,18.5
2018-05-14T15:23:56.168Z,18.5
2018-05-14T15:25:15.987Z,18.5
2018-05-14T15:26:38.397Z,18.4
2018-05-14T15:28:00.738Z,18.6
2018-05-14T15:29:20.562Z,18.6
2018-05-14T15:30:40.381Z,18.6
2018-05-14T15:32:00.244Z,18.6
2018-05-14T15:33:22.594Z,18.5
2018-05-14T15:34:42.418Z,18.6
2018-05-14T15:36:04.768Z,18.6
2018-05-14T15:37:24.640Z,18.6
2018-05-14T15:38:44.466Z,18.6
2018-05-14T15:40:06.852Z,18.6
2018-05-14T15:41:26.783Z,18.4
2018-05-14T15:42:46.688Z,18.5
2018-05-14T15:44:11.605Z,18.4
2018-05-14T15:45:31.463Z,18.4
2018-05-14T15:46:53.862Z,18.4
2018-05-14T15:48:13.714Z,17.9
2018-05-14T15:49:36.129Z,17.9
2018-05-14T15:51:06.086Z,18
2018-05-14T15:52:25.961Z,18
2018-05-14T15:53:48.350Z,18
2018-05-14T15:55:10.727Z,18
2018-05-14T15:56:35.706Z,18
2018-05-14T15:57:55.551Z,18
2018-05-14T15:59:17.922Z,18
2018-05-14T16:00:37.751Z,17.9
2018-05-14T16:01:57.613Z,18
2018-05-14T16:03:20.082Z,18
2018-05-14T16:04:39.909Z,17.9
2018-05-14T16:06:02.283Z,18
2018-05-14T16:07:34.771Z,18
2018-05-14T16:08:54.591Z,18
2018-05-14T16:10:14.415Z,18.4
2018-05-14T16:11:34.257Z,18.4
2018-05-14T16:12:54.075Z,18.4
2018-05-14T16:14:13.928Z,18.4
2018-05-14T16:15:33.759Z,17.9
2018-05-14T16:16:56.167Z,18.4
2018-05-14T16:18:16.012Z,18.4
2018-05-14T16:19:46.006Z,18.1
2018-05-14T16:21:08.359Z,17.9
2018-05-14T16:22:33.285Z,17.9
2018-05-14T16:23:53.111Z,18
2018-05-14T16:25:12.928Z,17.8
2018-05-14T16:26:32.899Z,17.9
2018-05-14T16:27:52.729Z,18
2018-05-14T16:29:12.587Z,18
2018-05-14T16:30:34.936Z,18
2018-05-14T16:31:54.769Z,18
2018-05-14T16:33:19.744Z,17.9
2018-05-14T16:34:42.253Z,17.8
2018-05-14T16:36:04.630Z,17.9
2018-05-14T16:37:29.571Z,18.1
2018-05-14T16:38:54.454Z,18.1
2018-05-14T16:40:19.327Z,18.1
2018-05-14T16:41:46.801Z,18
2018-05-14T16:43:24.361Z,18.1
2018-05-14T16:44:51.838Z,18.1
2018-05-14T16:46:26.886Z,18
2018-05-14T16:47:46.731Z,18
2018-05-14T16:49:09.081Z,18
2018-05-14T16:50:28.912Z,18.1
2018-05-14T16:51:53.838Z,18.1
2018-05-14T16:53:13.663Z,18
2018-05-14T16:54:33.479Z,18.2
2018-05-14T16:55:53.376Z,18.1
2018-05-14T16:57:13.193Z,17.9
2018-05-14T16:58:43.130Z,18
2018-05-14T17:00:05.485Z,17.9
2018-05-14T17:01:25.310Z,18
2018-05-14T17:02:47.679Z,17.9
2018-05-14T17:04:22.714Z,17.9
2018-05-14T17:05:42.562Z,17.9
2018-05-14T17:07:02.452Z,17.9
2018-05-14T17:08:22.276Z,17.9
2018-05-14T17:09:42.156Z,17.9
2018-05-14T17:11:02.031Z,18
2018-05-14T17:12:21.865Z,18
2018-05-14T17:13:54.394Z,18.1
2018-05-14T17:15:14.210Z,18
2018-05-14T17:16:34.030Z,18
2018-05-14T17:17:53.856Z,18
2018-05-14T17:19:21.292Z,18
2018-05-14T17:20:43.651Z,18
2018-05-14T17:22:11.109Z,18
2018-05-14T17:23:33.459Z,18
2018-05-14T17:24:55.858Z,18
2018-05-14T17:26:15.707Z,18.2
2018-05-14T17:27:35.538Z,18.5
2018-05-14T17:28:55.403Z,18.6
2018-05-14T17:30:17.763Z,18.5
2018-05-14T17:31:37.597Z,18.5
2018-05-14T17:32:59.953Z,18.5
2018-05-14T17:34:22.300Z,18.5
2018-05-14T17:35:44.664Z,18.5
2018-05-14T17:37:04.483Z,18.5
2018-05-14T17:38:26.850Z,18.5
2018-05-14T17:39:46.673Z,18.4
2018-05-14T17:41:06.565Z,18.4
2018-05-14T17:42:26.412Z,18.4
2018-05-14T17:43:46.314Z,18.4
2018-05-14T17:45:08.709Z,18.4
2018-05-14T17:46:28.532Z,18.4
2018-05-14T17:47:48.350Z,18.4
2018-05-14T17:49:10.763Z,18.4
2018-05-14T17:50:30.612Z,18.3
2018-05-14T17:51:53.028Z,18.3
2018-05-14T17:53:22.982Z,18.3
2018-05-14T17:54:42.817Z,18.3
2018-05-14T17:56:05.173Z,18.3
2018-05-14T17:57:30.076Z,18.3
2018-05-14T17:58:52.423Z,18.3
2018-05-14T18:00:12.241Z,18.3
2018-05-14T18:01:32.087Z,18.3
2018-05-14T18:02:59.545Z,18.3
2018-05-14T18:04:19.418Z,18.3
2018-05-14T18:05:44.306Z,18.2
2018-05-14T18:07:06.661Z,18.2
2018-05-14T18:08:29.020Z,18.2
2018-05-14T18:09:48.844Z,18.2
2018-05-14T18:11:08.822Z,18.2
2018-05-14T18:12:28.676Z,18.2
2018-05-14T18:13:51.094Z,18.2
2018-05-14T18:15:10.959Z,18.2
2018-05-14T18:16:30.866Z,18.2
2018-05-14T18:17:50.738Z,18.1
2018-05-14T18:19:15.729Z,18.1
2018-05-14T18:20:40.652Z,18.1
2018-05-14T18:22:00.503Z,18.1
2018-05-14T18:23:20.326Z,18.1